createdAt,value
2023-02-06T00:01:09.326Z,33.78
2023-02-06T00:03:42.373Z,29.80
2023-02-06T00:06:13.064Z,34.90
2023-02-06T00:08:39.792Z,32.27
2023-02-06T00:11:12.799Z,32.03
2023-02-06T00:13:42.077Z,30.80
2023-02-06T00:16:28.276Z,29.73
2023-02-06T00:18:57.896Z,32.72
2023-02-06T00:21:31.129Z,31.50
2023-02-06T00:24:16.063Z,38.80
2023-02-06T00:26:44.691Z,31.98
2023-02-06T00:29:14.015Z,35.40
2023-02-06T00:31:40.715Z,25.17
2023-02-06T00:34:10.455Z,33.03
2023-02-06T00:36:37.595Z,27.63
2023-02-06T00:39:11.266Z,31.45
2023-02-06T00:41:38.710Z,30.40
2023-02-06T00:44:08.636Z,38.67
2023-02-06T00:46:40.712Z,32.17
2023-02-06T00:49:07.520Z,36.67
2023-02-06T00:51:36.206Z,35.47
2023-02-06T00:54:05.461Z,38.33
2023-02-06T00:56:32.515Z,33.35
2023-02-06T00:59:01.059Z,29.87
2023-02-06T01:01:30.615Z,29.90
2023-02-06T01:03:57.416Z,30.90
2023-02-06T01:06:24.337Z,32.80
2023-02-06T01:08:51.436Z,31.48
2023-02-06T01:11:22.627Z,36.23
2023-02-06T01:13:50.217Z,31.13
2023-02-06T01:16:20.788Z,32.42
2023-02-06T01:18:53.296Z,31.70
2023-02-06T01:21:25.216Z,34.45
2023-02-06T01:23:54.156Z,29.80
2023-02-06T01:26:34.656Z,32.45
2023-02-06T01:29:06.737Z,30.40
2023-02-06T01:31:33.483Z,23.95
2023-02-06T01:34:02.008Z,28.98
2023-02-06T01:36:29.206Z,33.33
2023-02-06T01:38:56.279Z,31.90
2023-02-06T01:41:24.267Z,31.95
2023-02-06T01:44:18.277Z,34.72
2023-02-06T01:46:47.822Z,29.92
2023-02-06T01:49:35.764Z,27.47
2023-02-06T01:52:14.556Z,26.52
2023-02-06T01:54:41.965Z,30.15
2023-02-06T01:57:11.829Z,29.92
2023-02-06T01:59:43.038Z,29.70
2023-02-06T02:02:10.168Z,25.10
2023-02-06T02:04:39.246Z,29.58
2023-02-06T02:07:37.476Z,25.55
2023-02-06T02:10:05.474Z,32.60
2023-02-06T02:12:32.177Z,28.65
2023-02-06T02:14:59.336Z,25.30
2023-02-06T02:18:02.537Z,25.35
2023-02-06T02:20:31.980Z,21.08
2023-02-06T02:23:18.652Z,27.33
2023-02-06T02:26:15.090Z,30.90
2023-02-06T02:32:33.249Z,28.10
2023-02-06T02:35:35.838Z,22.13
2023-02-06T02:38:45.561Z,19.88
2023-02-06T02:41:46.088Z,22.40
2023-02-06T02:44:19.559Z,23.47
2023-02-06T02:46:50.648Z,27.88
2023-02-06T02:49:58.288Z,28.73
2023-02-06T02:52:26.814Z,26.90
2023-02-06T02:54:54.366Z,27.25
2023-02-06T02:57:31.828Z,26.23
2023-02-06T03:00:00.749Z,24.77
2023-02-06T03:02:35.005Z,29.02
2023-02-06T03:05:11.440Z,28.00
2023-02-06T03:08:14.879Z,23.42
2023-02-06T03:10:52.201Z,26.97
2023-02-06T03:13:51.139Z,32.50
2023-02-06T03:16:26.231Z,22.80
2023-02-06T03:19:02.930Z,20.30
2023-02-06T03:21:32.281Z,28.60
2023-02-06T03:24:03.129Z,24.07
2023-02-06T03:26:32.342Z,24.67
2023-02-06T03:29:02.384Z,28.83
2023-02-06T03:31:35.160Z,23.13
2023-02-06T03:34:18.659Z,27.63
2023-02-06T03:36:45.411Z,25.37
2023-02-06T03:39:12.816Z,26.33
2023-02-06T03:41:41.076Z,30.98
2023-02-06T03:44:12.279Z,28.75
2023-02-06T03:46:42.220Z,24.02
2023-02-06T03:49:14.066Z,25.73
2023-02-06T03:51:48.713Z,22.60
2023-02-06T03:54:19.021Z,31.40
2023-02-06T03:57:03.171Z,22.60
2023-02-06T03:59:31.191Z,29.60
2023-02-06T04:02:00.987Z,25.50
2023-02-06T04:04:39.573Z,20.45
2023-02-06T04:07:17.617Z,25.95
2023-02-06T04:09:44.309Z,24.52
2023-02-06T04:12:11.763Z,19.88
2023-02-06T04:14:38.836Z,21.57
2023-02-06T04:17:06.076Z,22.23
2023-02-06T04:19:33.198Z,21.20
2023-02-06T04:21:59.921Z,22.30
2023-02-06T04:24:26.616Z,25.88
2023-02-06T04:26:55.641Z,28.43
2023-02-06T04:29:22.340Z,21.80
2023-02-06T04:31:48.890Z,21.73
2023-02-06T04:34:15.486Z,21.73
2023-02-06T04:36:42.147Z,19.63
2023-02-06T04:39:09.064Z,26.80
2023-02-06T04:41:35.904Z,25.73
2023-02-06T04:44:02.475Z,21.67
2023-02-06T04:46:29.164Z,21.58
2023-02-06T04:48:55.892Z,24.67
2023-02-06T04:51:22.745Z,21.13
2023-02-06T04:53:49.399Z,23.65
2023-02-06T04:56:16.097Z,20.80
2023-02-06T04:58:42.789Z,19.40
2023-02-06T05:01:09.698Z,19.35
2023-02-06T05:03:36.420Z,21.73
2023-02-06T05:06:04.760Z,37.05
2023-02-06T05:08:39.131Z,24.52
2023-02-06T05:11:06.182Z,25.48
2023-02-06T05:13:34.246Z,27.85
2023-02-06T05:16:11.926Z,24.30
2023-02-06T05:18:39.261Z,25.10
2023-02-06T05:21:06.382Z,23.60
2023-02-06T05:23:33.261Z,21.20
2023-02-06T05:26:00.769Z,25.80
2023-02-06T05:28:29.853Z,26.83
2023-02-06T05:30:57.210Z,24.83
2023-02-06T05:33:24.172Z,24.60
2023-02-06T05:35:50.710Z,26.27
2023-02-06T05:38:17.645Z,31.00
2023-02-06T05:40:44.704Z,20.97
2023-02-06T05:43:11.717Z,27.00
2023-02-06T05:45:38.509Z,19.52
2023-02-06T05:48:05.486Z,29.92
2023-02-06T05:50:34.382Z,25.90
2023-02-06T05:53:01.066Z,30.00
2023-02-06T05:55:27.890Z,25.60
2023-02-06T05:57:54.438Z,39.10
2023-02-06T06:00:35.019Z,33.05
2023-02-06T06:03:01.715Z,24.92
2023-02-06T06:05:29.442Z,30.07
2023-02-06T06:07:56.377Z,24.83
2023-02-06T06:10:29.305Z,31.63
2023-02-06T06:13:00.628Z,33.90
2023-02-06T06:15:27.514Z,30.08
2023-02-06T06:17:58.633Z,28.20
2023-02-06T06:20:25.642Z,26.30
2023-02-06T06:22:52.576Z,26.60
2023-02-06T06:25:19.317Z,27.80
2023-02-06T06:27:45.957Z,26.48
2023-02-06T06:30:12.979Z,25.57
2023-02-06T06:32:39.750Z,26.58
2023-02-06T06:35:07.733Z,30.23
2023-02-06T06:37:40.656Z,33.08
2023-02-06T06:40:10.359Z,28.55
2023-02-06T06:42:37.402Z,26.77
2023-02-06T06:45:08.243Z,28.25
2023-02-06T06:47:43.422Z,28.15
2023-02-06T06:50:46.416Z,26.60
2023-02-06T06:53:22.153Z,26.02
2023-02-06T06:56:27.042Z,26.23
2023-02-06T06:58:58.296Z,26.88
2023-02-06T07:01:33.671Z,28.92
2023-02-06T07:04:09.904Z,21.15
2023-02-06T07:10:19.580Z,23.90
2023-02-06T07:13:01.623Z,26.30
2023-02-06T07:21:26.887Z,21.65
2023-02-06T07:24:33.128Z,25.67
2023-02-06T07:27:05.154Z,25.02
2023-02-06T07:29:41.980Z,24.20
2023-02-06T09:33:44.377Z,23.50
2023-02-06T09:36:23.502Z,23.40
2023-02-06T09:39:05.487Z,28.70
2023-02-06T10:07:25.064Z,15.27
2023-02-06T10:13:57.311Z,26.70
2023-02-06T10:16:26.837Z,29.08
2023-02-06T10:19:21.307Z,19.35
2023-02-06T10:22:22.529Z,24.97
2023-02-06T10:25:29.682Z,22.65
2023-02-06T10:28:25.421Z,28.88
2023-02-06T10:31:21.757Z,22.75
2023-02-06T10:33:57.507Z,29.08
2023-02-06T10:37:04.649Z,24.33
2023-02-06T10:40:06.722Z,22.27
2023-02-06T10:42:54.808Z,26.08
2023-02-06T10:46:23.084Z,28.63
2023-02-06T10:49:02.728Z,23.13
2023-02-06T10:51:38.880Z,25.37
2023-02-06T10:54:15.932Z,19.73
2023-02-06T10:56:52.168Z,22.45
2023-02-06T10:59:37.488Z,20.55
2023-02-06T11:02:34.470Z,23.60
2023-02-06T11:05:08.451Z,19.47
2023-02-06T11:07:54.200Z,24.27
2023-02-06T11:10:28.536Z,19.95
2023-02-06T11:13:16.541Z,20.52
2023-02-06T11:16:17.141Z,23.33
2023-02-06T11:18:51.409Z,21.90
2023-02-06T11:22:01.035Z,18.08
2023-02-06T11:24:27.716Z,15.93
2023-02-06T11:27:05.016Z,16.65
2023-02-06T11:30:02.622Z,10.93
2023-02-06T11:33:09.160Z,17.70
2023-02-06T11:38:55.024Z,16.27
2023-02-06T11:41:24.060Z,19.55
2023-02-06T11:43:58.654Z,20.08
2023-02-06T11:46:34.242Z,20.63
2023-02-06T11:49:11.523Z,13.88
2023-02-06T11:51:51.896Z,12.25
2023-02-06T11:54:41.632Z,14.13
2023-02-06T11:57:26.646Z,16.23
2023-02-06T12:00:01.158Z,19.13
2023-02-06T12:02:34.241Z,16.77
2023-02-06T12:05:25.334Z,17.17
2023-02-06T12:08:05.066Z,16.15
2023-02-06T12:10:55.107Z,14.38
2023-02-06T12:13:27.881Z,12.87
2023-02-06T12:15:58.716Z,22.52
2023-02-06T12:18:41.412Z,15.70
2023-02-06T12:21:24.544Z,12.70
2023-02-06T12:24:02.174Z,18.15
2023-02-06T12:26:34.194Z,17.00
2023-02-06T12:29:23.131Z,11.65
2023-02-06T12:32:04.730Z,13.77
2023-02-06T12:34:53.575Z,15.00
2023-02-06T12:37:39.814Z,14.45
2023-02-06T12:40:27.060Z,12.83
2023-02-06T12:43:01.692Z,16.13
2023-02-06T12:45:57.565Z,10.82
2023-02-06T12:48:44.027Z,12.40
2023-02-06T12:51:42.817Z,14.13
2023-02-06T12:54:21.993Z,11.77
2023-02-06T12:57:17.334Z,15.30
2023-02-06T13:00:02.719Z,14.02
2023-02-06T13:03:01.178Z,11.50
2023-02-06T13:05:37.387Z,13.57
2023-02-06T13:08:09.994Z,13.40
2023-02-06T13:10:37.879Z,12.90
2023-02-06T13:13:05.491Z,12.35
2023-02-06T13:15:37.863Z,10.35
2023-02-06T13:18:37.012Z,11.65
2023-02-06T13:21:32.461Z,13.33
2023-02-06T13:24:15.641Z,11.18
2023-02-06T13:26:56.573Z,10.25
2023-02-06T13:29:30.520Z,8.18
2023-02-06T13:32:17.826Z,11.20
2023-02-06T13:34:53.979Z,12.80
2023-02-06T13:37:44.945Z,12.43
2023-02-06T13:40:24.417Z,12.15
2023-02-06T13:43:19.004Z,14.10
2023-02-06T13:46:04.472Z,8.40
2023-02-06T13:48:33.999Z,8.63
2023-02-06T13:51:33.301Z,9.70
2023-02-06T13:54:12.534Z,10.88
2023-02-06T13:56:42.178Z,11.95
2023-02-06T13:59:21.112Z,9.13
2023-02-06T14:01:51.019Z,11.63
2023-02-06T14:04:24.880Z,14.90
2023-02-06T14:07:31.183Z,9.82
2023-02-06T14:10:06.815Z,10.45
2023-02-06T14:12:54.882Z,8.25
2023-02-06T14:15:29.117Z,9.37
2023-02-06T14:18:15.582Z,11.95
2023-02-06T14:20:52.561Z,9.30
2023-02-06T14:23:45.568Z,10.05
2023-02-06T14:26:45.851Z,10.52
2023-02-06T14:32:51.206Z,10.52
2023-02-06T14:35:57.260Z,13.85
2023-02-06T14:39:09.675Z,10.20
2023-02-06T14:41:39.798Z,8.18
2023-02-06T14:44:20.334Z,9.80
2023-02-06T14:46:47.687Z,13.95
2023-02-06T14:49:18.911Z,9.25
2023-02-06T14:51:50.625Z,14.43
2023-02-06T14:54:34.262Z,9.07
2023-02-06T14:57:21.067Z,8.47
2023-02-06T15:00:23.203Z,9.85
2023-02-06T15:03:17.719Z,10.20
2023-02-06T15:06:14.682Z,10.43
2023-02-06T15:08:51.012Z,7.28
2023-02-06T15:11:32.470Z,9.77
2023-02-06T15:14:07.238Z,10.48
2023-02-06T15:16:51.018Z,12.75
2023-02-06T15:19:27.739Z,21.70
2023-02-06T15:22:17.254Z,12.27
2023-02-06T15:24:52.992Z,16.53
2023-02-06T15:27:57.681Z,10.82
2023-02-06T15:30:44.116Z,9.43
2023-02-06T15:34:26.005Z,8.30
2023-02-06T15:36:30.843Z,7.07
2023-02-06T15:39:02.871Z,6.93
2023-02-06T15:41:32.707Z,10.80
2023-02-06T15:44:40.451Z,7.95
2023-02-06T15:47:14.013Z,6.63
2023-02-06T15:50:07.478Z,6.97
2023-02-06T15:52:42.888Z,7.47
2023-02-06T15:55:33.239Z,9.70
2023-02-06T15:58:06.277Z,8.63
2023-02-06T16:00:38.235Z,13.70
2023-02-06T16:03:21.711Z,8.63
2023-02-06T16:05:53.424Z,7.23
2023-02-06T16:08:30.877Z,10.27
2023-02-06T16:11:54.178Z,10.70
2023-02-06T16:15:08.394Z,8.73
2023-02-06T16:17:43.637Z,11.02
2023-02-06T16:20:52.480Z,13.60
2023-02-06T16:23:53.052Z,12.27
2023-02-06T16:27:20.226Z,10.27
2023-02-06T16:30:09.309Z,11.60
2023-02-06T16:32:56.660Z,9.95
2023-02-06T16:36:05.212Z,12.70
2023-02-06T16:39:03.699Z,13.48
2023-02-06T16:45:31.491Z,14.93
2023-02-06T16:48:18.489Z,12.88
2023-02-06T16:51:31.664Z,16.77
2023-02-06T16:54:09.631Z,13.13
2023-02-06T17:02:03.425Z,14.02
2023-02-06T17:04:58.180Z,13.02
2023-02-06T17:09:37.840Z,11.93
2023-02-06T17:21:27.470Z,18.05
2023-02-06T20:30:41.873Z,22.60
2023-02-06T20:37:46.356Z,22.77
2023-02-06T21:08:21.033Z,25.30
2023-02-06T21:15:21.312Z,25.73
2023-02-06T21:25:08.694Z,27.35
2023-02-06T21:28:48.617Z,23.90
2023-02-06T21:41:34.529Z,31.23
2023-02-06T21:56:04.287Z,21.30
2023-02-06T21:58:49.126Z,20.08
2023-02-06T22:01:43.501Z,25.63
2023-02-06T22:05:24.812Z,18.75
2023-02-06T22:48:28.561Z,28.38
2023-02-06T22:51:52.632Z,28.48
2023-02-06T23:03:29.467Z,28.07
2023-02-06T23:31:33.276Z,32.50
2023-02-06T23:34:00.839Z,34.17
2023-02-06T23:36:40.372Z,34.30
2023-02-06T23:39:18.613Z,37.93
2023-02-06T23:41:54.660Z,29.60
2023-02-06T23:48:03.006Z,31.90
2023-02-06T23:50:56.613Z,22.17
2023-02-06T23:53:53.037Z,32.60
2023-02-06T23:57:01.787Z,26.35
